createdAt,value
2022-10-08T00:01:19.362Z,100546.00
2022-10-08T00:04:22.019Z,100550.47
2022-10-08T00:07:24.336Z,100548.47
2022-10-08T00:10:27.415Z,100542.66
2022-10-08T00:13:40.733Z,100550.59
2022-10-08T00:16:42.541Z,100550.09
2022-10-08T00:19:44.531Z,100548.72
2022-10-08T00:22:46.399Z,100549.94
2022-10-08T00:25:49.701Z,100550.34
2022-10-08T00:28:52.823Z,100553.38
2022-10-08T00:31:54.458Z,100547.88
2022-10-08T00:34:57.135Z,100556.28
2022-10-08T00:37:58.824Z,100555.63
2022-10-08T00:41:02.809Z,100556.69
2022-10-08T00:44:37.880Z,100557.91
2022-10-08T00:47:44.078Z,100549.84
2022-10-08T00:50:45.799Z,100543.91
2022-10-08T00:53:47.501Z,100549.97
2022-10-08T00:56:53.499Z,100548.00
2022-10-08T00:59:56.440Z,100549.97
2022-10-08T01:02:58.734Z,100558.16
2022-10-08T01:06:11.794Z,100555.50
2022-10-08T01:09:19.319Z,100543.72
2022-10-08T01:12:36.925Z,100558.00
2022-10-08T01:15:45.189Z,100559.16
2022-10-08T01:18:56.381Z,100556.41
2022-10-08T01:22:07.059Z,100556.28
2022-10-08T01:25:34.756Z,100549.38
2022-10-08T01:28:40.690Z,100541.28
2022-10-08T01:31:46.351Z,100548.97
2022-10-08T01:34:53.040Z,100550.16
2022-10-08T01:37:58.161Z,100534.94
2022-10-08T01:41:05.203Z,100539.47
2022-10-08T01:44:13.670Z,100532.31
2022-10-08T01:47:20.010Z,100542.47
2022-10-08T01:50:29.596Z,100538.06
2022-10-08T01:53:36.792Z,100542.78
2022-10-08T01:56:41.303Z,100548.59
2022-10-08T01:59:48.883Z,100533.78
2022-10-08T02:02:50.615Z,100554.72
2022-10-08T02:05:55.648Z,100549.53
2022-10-08T02:08:57.517Z,100553.22
2022-10-08T02:11:59.168Z,100555.47
2022-10-08T02:15:04.485Z,100555.47
2022-10-08T02:18:10.972Z,100558.91
2022-10-08T02:21:19.954Z,100554.84
2022-10-08T02:24:26.825Z,100552.34
2022-10-08T02:27:34.806Z,100558.75
2022-10-08T02:30:43.097Z,100551.22
2022-10-08T02:33:50.326Z,100558.41
2022-10-08T02:37:01.760Z,100563.84
2022-10-08T02:40:09.434Z,100555.06
2022-10-08T02:43:19.597Z,100557.09
2022-10-08T02:46:25.969Z,100558.69
2022-10-08T02:49:31.586Z,100565.41
2022-10-08T02:52:38.688Z,100568.84
2022-10-08T02:55:48.357Z,100559.88
2022-10-08T02:58:50.522Z,100574.66
2022-10-08T03:01:59.411Z,100563.31
2022-10-08T03:05:05.525Z,100564.63
2022-10-08T03:08:09.691Z,100571.75
2022-10-08T03:11:12.418Z,100576.22
2022-10-08T03:14:16.558Z,100575.84
2022-10-08T03:17:26.083Z,100570.97
2022-10-08T03:20:27.953Z,100577.69
2022-10-08T03:23:29.574Z,100575.59
2022-10-08T03:26:31.237Z,100570.97
2022-10-08T03:29:32.927Z,100577.19
2022-10-08T03:32:35.927Z,100586.16
2022-10-08T03:35:37.542Z,100588.25
2022-10-08T03:38:39.105Z,100585.13
2022-10-08T03:41:40.749Z,100588.16
2022-10-08T03:44:42.385Z,100586.97
2022-10-08T03:47:50.654Z,100585.22
2022-10-08T03:50:53.583Z,100594.16
2022-10-08T03:53:55.237Z,100596.88
2022-10-08T03:56:56.848Z,100595.28
2022-10-08T03:59:58.642Z,100603.03
2022-10-08T04:03:01.714Z,100608.22
2022-10-08T04:06:04.018Z,100619.34
2022-10-08T04:09:05.646Z,100612.72
2022-10-08T04:12:07.273Z,100610.41
2022-10-08T04:15:09.739Z,100612.13
2022-10-08T04:18:14.006Z,100618.47
2022-10-08T04:21:17.290Z,100621.84
2022-10-08T04:24:18.942Z,100614.53
2022-10-08T04:27:20.977Z,100618.09
2022-10-08T04:30:24.178Z,100618.88
2022-10-08T04:33:28.218Z,100620.09
2022-10-08T04:36:29.909Z,100615.03
2022-10-08T04:39:31.545Z,100620.88
2022-10-08T04:42:33.420Z,100622.34
2022-10-08T04:45:35.036Z,100621.09
2022-10-08T04:48:39.070Z,100632.84
2022-10-08T04:51:40.775Z,100629.19
2022-10-08T04:54:42.440Z,100629.28
2022-10-08T04:57:44.053Z,100632.88
2022-10-08T05:00:45.705Z,100634.50
2022-10-08T05:03:50.154Z,100643.31
2022-10-08T05:06:51.829Z,100643.03
2022-10-08T05:09:53.521Z,100633.50
2022-10-08T05:12:55.160Z,100643.53
2022-10-08T05:15:56.916Z,100652.16
2022-10-08T05:18:59.997Z,100654.78
2022-10-08T05:22:01.758Z,100650.88
2022-10-08T05:25:03.772Z,100657.75
2022-10-08T05:28:05.543Z,100657.19
2022-10-08T05:31:07.710Z,100654.72
2022-10-08T05:34:12.292Z,100657.94
2022-10-08T05:37:13.952Z,100662.28
2022-10-08T05:40:15.879Z,100663.38
2022-10-08T05:43:17.485Z,100674.38
2022-10-08T05:46:19.247Z,100666.63
2022-10-08T05:49:23.121Z,100671.91
2022-10-08T05:52:27.010Z,100676.84
2022-10-08T05:55:28.686Z,100680.09
2022-10-08T05:58:30.678Z,100677.47
2022-10-08T06:01:33.888Z,100683.50
2022-10-08T06:04:36.947Z,100690.75
2022-10-08T06:07:38.632Z,100689.66
2022-10-08T06:10:48.774Z,100696.63
2022-10-08T06:13:52.209Z,100694.31
2022-10-08T06:16:53.872Z,100701.72
2022-10-08T06:19:56.902Z,100698.63
2022-10-08T06:22:58.602Z,100710.06
2022-10-08T06:26:01.957Z,100717.16
2022-10-08T06:29:05.490Z,100726.94
2022-10-08T06:32:07.406Z,100722.25
2022-10-08T06:35:10.574Z,100716.22
2022-10-08T06:38:12.372Z,100721.78
2022-10-08T06:41:14.037Z,100728.09
2022-10-08T06:44:15.791Z,100724.53
2022-10-08T06:47:17.533Z,100730.13
2022-10-08T06:50:20.749Z,100727.47
2022-10-08T06:53:22.446Z,100727.19
2022-10-08T06:56:25.445Z,100732.88
2022-10-08T06:59:27.096Z,100729.00
2022-10-08T07:02:28.896Z,100729.75
2022-10-08T07:05:33.206Z,100738.75
2022-10-08T07:08:37.952Z,100741.19
2022-10-08T07:11:39.649Z,100744.84
2022-10-08T07:14:41.474Z,100741.97
2022-10-08T07:17:43.105Z,100747.53
2022-10-08T07:20:54.445Z,100743.91
2022-10-08T07:23:56.310Z,100746.25
2022-10-08T07:26:58.011Z,100753.63
2022-10-08T07:29:59.713Z,100762.38
2022-10-08T07:33:01.617Z,100760.41
2022-10-08T07:36:10.450Z,100766.78
2022-10-08T07:39:14.888Z,100775.31
2022-10-08T07:42:16.674Z,100775.53
2022-10-08T07:45:18.429Z,100781.75
2022-10-08T07:48:20.665Z,100779.09
2022-10-08T07:51:23.692Z,100776.91
2022-10-08T07:54:25.339Z,100774.63
2022-10-08T07:57:27.783Z,100786.47
2022-10-08T08:00:29.590Z,100789.22
2022-10-08T08:03:31.831Z,100787.91
2022-10-08T08:06:39.762Z,100794.38
2022-10-08T08:09:41.410Z,100789.41
2022-10-08T08:12:43.280Z,100790.25
2022-10-08T08:15:44.976Z,100792.06
2022-10-08T08:18:48.560Z,100801.97
2022-10-08T08:21:51.632Z,100789.03
2022-10-08T08:24:53.327Z,100801.78
2022-10-08T08:27:55.164Z,100804.47
2022-10-08T08:31:06.999Z,100802.69
2022-10-08T08:34:11.089Z,100809.75
2022-10-08T08:37:14.419Z,100808.97
2022-10-08T08:40:16.160Z,100808.84
2022-10-08T08:43:18.312Z,100820.06
2022-10-08T08:46:21.672Z,100822.09
2022-10-08T08:49:28.605Z,100818.94
2022-10-08T08:52:37.783Z,100827.66
2022-10-08T08:55:44.260Z,100825.41
2022-10-08T08:58:53.465Z,100824.78
2022-10-08T09:01:59.379Z,100822.44
2022-10-08T09:05:04.002Z,100819.09
2022-10-08T09:08:16.010Z,100820.16
2022-10-08T09:11:21.677Z,100826.97
2022-10-08T09:14:34.291Z,100836.03
2022-10-08T09:17:39.640Z,100836.94
2022-10-08T09:20:41.926Z,100827.81
2022-10-08T09:23:45.545Z,100825.56
2022-10-08T09:26:48.627Z,100824.78
2022-10-08T09:29:50.584Z,100825.03
2022-10-08T09:32:53.349Z,100833.75
2022-10-08T09:35:55.450Z,100829.97
2022-10-08T09:39:00.351Z,100833.44
2022-10-08T09:42:14.185Z,100834.50
2022-10-08T09:45:33.473Z,100840.19
2022-10-08T09:48:35.279Z,100837.06
2022-10-08T09:51:37.204Z,100842.41
2022-10-08T09:54:48.593Z,100850.78
2022-10-08T09:57:53.272Z,100849.44
2022-10-08T10:01:16.434Z,100853.88
2022-10-08T10:04:21.183Z,100848.84
2022-10-08T10:07:24.189Z,100853.88
2022-10-08T10:10:29.877Z,100857.84
2022-10-08T10:13:36.266Z,100865.44
2022-10-08T10:16:41.690Z,100874.84
2022-10-08T10:19:50.812Z,100864.69
2022-10-08T10:22:57.784Z,100866.41
2022-10-08T10:26:06.714Z,100859.75
2022-10-08T10:29:15.125Z,100854.75
2022-10-08T10:32:23.376Z,100860.50
2022-10-08T10:35:27.093Z,100860.22
2022-10-08T10:38:30.588Z,100860.09
2022-10-08T10:41:37.439Z,100859.88
2022-10-08T10:44:51.447Z,100861.53
2022-10-08T10:47:54.168Z,100860.59
2022-10-08T10:51:04.036Z,100866.91
2022-10-08T10:54:21.147Z,100866.09
2022-10-08T10:57:40.321Z,100879.16
2022-10-08T11:00:51.022Z,100871.00
2022-10-08T11:04:02.550Z,100877.19
2022-10-08T11:07:12.752Z,100880.28
2022-10-08T11:10:28.372Z,100886.75
2022-10-08T11:13:42.526Z,100880.94
2022-10-08T11:16:56.734Z,100881.28
2022-10-08T11:20:23.444Z,100881.56
2022-10-08T11:23:40.848Z,100882.75
2022-10-08T11:26:51.006Z,100874.16
2022-10-08T11:30:02.782Z,100879.22
2022-10-08T11:33:05.624Z,100878.72
2022-10-08T11:36:25.179Z,100873.81
2022-10-08T11:39:37.056Z,100887.13
2022-10-08T11:42:48.267Z,100882.69
2022-10-08T11:46:22.688Z,100884.66
2022-10-08T11:49:49.969Z,100882.53
2022-10-08T11:52:53.606Z,100888.75
2022-10-08T11:55:58.039Z,100883.78
2022-10-08T11:59:01.927Z,100883.78
2022-10-08T12:02:19.647Z,100887.94
2022-10-08T12:05:36.522Z,100885.28
2022-10-08T12:08:53.370Z,100895.75
2022-10-08T12:11:55.353Z,100893.53
2022-10-08T12:14:57.118Z,100887.06
2022-10-08T12:18:02.143Z,100891.63
2022-10-08T12:21:49.916Z,100884.78
2022-10-08T12:24:53.080Z,100884.66
2022-10-08T12:28:35.239Z,100881.09
2022-10-08T12:31:40.053Z,100886.75
2022-10-08T12:34:44.812Z,100881.69
2022-10-08T12:38:03.528Z,100883.53
2022-10-08T12:41:18.141Z,100884.31
2022-10-08T12:44:38.485Z,100891.19
2022-10-08T12:47:48.858Z,100880.97
2022-10-08T12:51:03.337Z,100894.63
2022-10-08T12:54:05.370Z,100880.94
2022-10-08T12:57:10.383Z,100883.81
2022-10-08T13:00:22.039Z,100876.69
2022-10-08T13:03:25.323Z,100876.09
2022-10-08T13:06:33.699Z,100876.50
2022-10-08T13:09:35.944Z,100874.84
2022-10-08T13:12:37.601Z,100881.28
2022-10-08T13:15:39.300Z,100877.00
2022-10-08T13:18:43.422Z,100873.81
2022-10-08T13:21:55.990Z,100882.06
2022-10-08T13:24:57.702Z,100879.81
2022-10-08T13:28:11.167Z,100878.34
2022-10-08T13:31:23.160Z,100883.81
2022-10-08T13:34:28.235Z,100879.66
2022-10-08T13:37:36.256Z,100884.41
2022-10-08T13:40:38.197Z,100892.25
2022-10-08T13:43:39.968Z,100886.53
2022-10-08T13:46:41.699Z,100893.97
2022-10-08T13:49:44.051Z,100889.34
2022-10-08T13:52:53.795Z,100888.66
2022-10-08T13:55:55.517Z,100894.44
2022-10-08T13:58:57.154Z,100886.94
2022-10-08T14:01:58.967Z,100888.09
2022-10-08T14:05:00.689Z,100890.09
2022-10-08T14:08:11.191Z,100888.53
2022-10-08T14:11:17.389Z,100890.16
2022-10-08T14:14:19.003Z,100884.03
2022-10-08T14:17:20.846Z,100886.88
2022-10-08T14:20:22.581Z,100894.66
2022-10-08T14:23:25.905Z,100901.25
2022-10-08T14:26:28.353Z,100890.53
2022-10-08T14:29:32.502Z,100894.66
2022-10-08T14:32:34.201Z,100899.78
2022-10-08T14:35:35.945Z,100897.97
2022-10-08T14:38:38.950Z,100893.63
2022-10-08T14:41:41.898Z,100890.75
2022-10-08T14:44:43.541Z,100892.69
2022-10-08T14:47:45.215Z,100882.09
2022-10-08T14:50:46.946Z,100888.31
2022-10-08T14:53:51.730Z,100887.06
2022-10-08T14:56:53.490Z,100881.06
2022-10-08T14:59:55.242Z,100881.50
2022-10-08T15:02:56.931Z,100877.13
2022-10-08T15:06:00.126Z,100881.50
2022-10-08T15:09:03.466Z,100882.88
2022-10-08T15:12:05.200Z,100880.91
2022-10-08T15:15:07.638Z,100875.66
2022-10-08T15:18:11.315Z,100879.50
2022-10-08T15:21:12.982Z,100878.38
2022-10-08T15:24:16.142Z,100880.09
2022-10-08T15:27:20.773Z,100876.16
2022-10-08T15:30:23.768Z,100873.97
2022-10-08T15:33:25.422Z,100873.84
2022-10-08T15:36:30.227Z,100872.53
2022-10-08T15:39:36.011Z,100876.38
2022-10-08T15:42:37.989Z,100884.22
2022-10-08T15:45:42.275Z,100878.28
2022-10-08T15:48:50.768Z,100878.69
2022-10-08T15:51:52.417Z,100881.13
2022-10-08T15:54:55.419Z,100877.72
2022-10-08T15:57:57.829Z,100884.78
2022-10-08T16:01:05.028Z,100885.16
2022-10-08T16:04:07.875Z,100890.94
2022-10-08T16:07:09.792Z,100891.75
2022-10-08T16:10:12.804Z,100892.09
2022-10-08T16:13:14.462Z,100891.69
2022-10-08T16:16:17.886Z,100899.78
2022-10-08T16:19:21.932Z,100902.34
2022-10-08T16:22:23.567Z,100906.03
2022-10-08T16:25:26.665Z,100901.72
2022-10-08T16:28:31.829Z,100900.84
2022-10-08T16:31:36.198Z,100906.94
2022-10-08T16:34:37.900Z,100914.75
2022-10-08T16:37:39.689Z,100926.63
2022-10-08T16:40:42.701Z,100921.78
2022-10-08T16:43:46.840Z,100932.28
2022-10-08T16:46:50.441Z,100939.56
2022-10-08T16:49:52.415Z,100944.38
2022-10-08T16:52:54.043Z,100943.91
2022-10-08T16:56:01.661Z,100951.91
2022-10-08T16:59:05.652Z,100957.19
2022-10-08T17:02:09.956Z,100960.78
2022-10-08T17:05:11.630Z,100960.75
2022-10-08T17:08:14.587Z,100966.09
2022-10-08T17:11:19.029Z,100977.91
2022-10-08T17:14:20.773Z,100978.41
2022-10-08T17:17:22.537Z,100987.47
2022-10-08T17:20:24.356Z,100990.28
2022-10-08T17:23:27.703Z,100999.63
2022-10-08T17:26:31.436Z,101003.06
2022-10-08T17:29:35.230Z,101009.09
2022-10-08T17:32:36.908Z,101014.03
2022-10-08T17:35:38.625Z,101010.81
2022-10-08T17:38:42.797Z,101023.94
2022-10-08T17:41:45.882Z,101029.06
2022-10-08T17:44:47.816Z,101028.28
2022-10-08T17:47:49.453Z,101035.22
2022-10-08T17:50:51.202Z,101039.44
2022-10-08T17:53:54.111Z,101052.56
2022-10-08T17:56:58.600Z,101060.44
2022-10-08T18:00:00.333Z,101051.31
2022-10-08T18:03:02.269Z,101053.44
2022-10-08T18:06:05.266Z,101063.19
2022-10-08T18:09:09.123Z,101068.75
2022-10-08T18:12:12.754Z,101060.88
2022-10-08T18:15:15.714Z,101075.53
2022-10-08T18:18:17.399Z,101074.47
2022-10-08T18:21:20.064Z,101078.63
2022-10-08T18:24:22.064Z,101080.56
2022-10-08T18:27:25.438Z,101081.22
2022-10-08T18:30:27.216Z,101079.22
2022-10-08T18:33:30.586Z,101081.16
2022-10-08T18:36:33.833Z,101089.09
2022-10-08T18:39:35.497Z,101095.50
2022-10-08T18:42:38.533Z,101097.81
2022-10-08T18:45:40.227Z,101095.78
2022-10-08T18:48:42.285Z,101102.16
2022-10-08T18:51:44.816Z,101109.69
2022-10-08T18:54:46.555Z,101116.09
2022-10-08T18:57:52.713Z,101118.34
2022-10-08T19:00:54.675Z,101124.72
2022-10-08T19:03:58.549Z,101128.38
2022-10-08T19:07:00.372Z,101140.44
2022-10-08T19:10:02.027Z,101141.00
2022-10-08T19:13:04.977Z,101145.53
2022-10-08T19:16:13.684Z,101149.06
2022-10-08T19:19:18.326Z,101145.91
2022-10-08T19:22:20.161Z,101154.22
2022-10-08T19:25:21.901Z,101152.19
2022-10-08T19:28:25.042Z,101153.75
2022-10-08T19:31:28.501Z,101163.13
2022-10-08T19:34:30.413Z,101164.44
2022-10-08T19:37:32.329Z,101166.38
2022-10-08T19:40:34.522Z,101178.31
2022-10-08T19:43:38.012Z,101172.53
2022-10-08T19:46:39.759Z,101176.63
2022-10-08T19:49:41.496Z,101172.72
2022-10-08T19:52:45.719Z,101174.00
2022-10-08T19:55:50.532Z,101192.38
2022-10-08T19:58:53.842Z,101181.38
2022-10-08T20:01:55.655Z,101197.38
2022-10-08T20:04:57.404Z,101189.50
2022-10-08T20:07:59.055Z,101197.53
2022-10-08T20:11:02.391Z,101193.03
2022-10-08T20:14:06.000Z,101204.28
2022-10-08T20:17:07.926Z,101206.31
2022-10-08T20:20:31.672Z,101212.75
2022-10-08T20:23:32.037Z,101211.97
2022-10-08T20:26:34.906Z,101212.97
2022-10-08T20:29:38.013Z,101211.59
2022-10-08T20:32:39.749Z,101214.47
2022-10-08T20:35:41.441Z,101217.00
2022-10-08T20:38:43.610Z,101220.25
2022-10-08T20:41:45.339Z,101217.56
2022-10-08T20:44:48.366Z,101219.44
2022-10-08T20:47:50.021Z,101223.28
2022-10-08T20:50:51.853Z,101216.84
2022-10-08T20:53:56.715Z,101215.47
2022-10-08T20:56:58.547Z,101221.88
2022-10-08T21:00:01.603Z,101231.28
2022-10-08T21:03:03.770Z,101221.13
2022-10-08T21:06:07.021Z,101226.25
2022-10-08T21:09:08.900Z,101229.31
2022-10-08T21:12:10.574Z,101229.69
2022-10-08T21:15:13.583Z,101239.22
2022-10-08T21:18:15.322Z,101237.72
2022-10-08T21:21:17.752Z,101236.03
2022-10-08T21:24:19.671Z,101233.72
2022-10-08T21:27:21.517Z,101235.59
2022-10-08T21:30:24.570Z,101235.09
2022-10-08T21:33:26.322Z,101234.47
2022-10-08T21:36:29.850Z,101236.13
2022-10-08T21:39:31.512Z,101240.75
2022-10-08T21:42:33.172Z,101245.31
2022-10-08T21:45:36.214Z,101237.22
2022-10-08T21:48:38.425Z,101249.66
2022-10-08T21:51:40.434Z,101252.09
2022-10-08T21:54:42.069Z,101244.72
2022-10-08T21:57:43.660Z,101246.84
2022-10-08T22:00:46.905Z,101248.25
2022-10-08T22:03:48.796Z,101246.91
2022-10-08T22:06:51.951Z,101252.66
2022-10-08T22:09:53.584Z,101248.72
2022-10-08T22:12:55.209Z,101249.06
2022-10-08T22:16:00.373Z,101246.09
2022-10-08T22:19:02.138Z,101256.81
2022-10-08T22:22:03.890Z,101251.34
2022-10-08T22:25:05.814Z,101253.50
2022-10-08T22:28:08.323Z,101260.22
2022-10-08T22:31:13.792Z,101261.72
2022-10-08T22:34:15.510Z,101258.56
2022-10-08T22:37:17.130Z,101249.78
2022-10-08T22:40:18.801Z,101256.19
2022-10-08T22:43:20.485Z,101250.06
2022-10-08T22:46:25.365Z,101255.06
2022-10-08T22:49:26.869Z,101249.44
2022-10-08T22:52:28.989Z,101253.75
2022-10-08T22:55:31.023Z,101253.38
2022-10-08T22:58:33.381Z,101243.81
2022-10-08T23:01:36.411Z,101245.69
2022-10-08T23:04:38.046Z,101243.13
2022-10-08T23:07:39.663Z,101247.25
2022-10-08T23:10:41.275Z,101244.84
2022-10-08T23:13:46.054Z,101244.84
2022-10-08T23:16:49.147Z,101252.47
2022-10-08T23:19:50.783Z,101247.09
2022-10-08T23:22:52.460Z,101245.78
2022-10-08T23:25:54.867Z,101241.13
2022-10-08T23:28:58.692Z,101232.94
2022-10-08T23:32:01.708Z,101235.75
2022-10-08T23:35:03.565Z,101233.13
2022-10-08T23:38:05.209Z,101234.81
2022-10-08T23:41:08.504Z,101229.00
2022-10-08T23:44:10.644Z,101229.22
2022-10-08T23:47:13.620Z,101233.13
2022-10-08T23:50:15.283Z,101226.78
2022-10-08T23:53:17.293Z,101242.28
2022-10-08T23:56:20.023Z,101229.84
2022-10-08T23:59:21.654Z,101217.16
